createdAt,value
2023-02-01T00:01:43.143Z,4.84
2023-02-01T00:04:11.245Z,5.02
2023-02-01T00:06:39.281Z,4.89
2023-02-01T00:09:07.434Z,4.89
2023-02-01T00:11:35.802Z,4.97
2023-02-01T00:14:04.011Z,4.88
2023-02-01T00:16:32.711Z,5.08
2023-02-01T00:19:03.015Z,4.75
2023-02-01T00:21:31.368Z,5.03
2023-02-01T00:23:59.691Z,5.00
2023-02-01T00:26:29.909Z,4.98
2023-02-01T00:28:58.107Z,4.98
2023-02-01T00:31:29.103Z,4.83
2023-02-01T00:33:57.771Z,5.18
2023-02-01T00:36:27.130Z,5.00
2023-02-01T00:38:55.291Z,4.99
2023-02-01T00:41:23.954Z,4.96
2023-02-01T00:43:52.720Z,4.94
2023-02-01T00:46:21.329Z,4.90
2023-02-01T00:48:49.420Z,4.96
2023-02-01T00:51:18.647Z,5.14
2023-02-01T00:53:48.014Z,5.02
2023-02-01T00:56:16.600Z,5.27
2023-02-01T00:58:46.042Z,5.31
2023-02-01T01:01:15.315Z,4.95
2023-02-01T01:03:44.172Z,5.07
2023-02-01T01:06:13.550Z,5.14
2023-02-01T01:08:42.031Z,5.17
2023-02-01T01:11:12.830Z,5.18
2023-02-01T01:13:40.981Z,5.27
2023-02-01T01:16:09.964Z,5.37
2023-02-01T01:18:38.126Z,5.23
2023-02-01T01:21:07.186Z,5.28
2023-02-01T01:23:35.662Z,5.48
2023-02-01T01:26:08.049Z,5.48
2023-02-01T01:28:38.163Z,5.31
2023-02-01T01:31:09.921Z,5.49
2023-02-01T01:33:38.385Z,5.38
2023-02-01T01:36:07.171Z,5.38
2023-02-01T01:38:35.230Z,5.36
2023-02-01T01:41:03.497Z,5.50
2023-02-01T01:46:27.012Z,5.45
2023-02-01T01:48:58.832Z,5.53
2023-02-01T01:51:29.634Z,5.41
2023-02-01T01:54:01.239Z,5.56
2023-02-01T01:56:30.726Z,5.61
2023-02-01T01:58:59.452Z,5.60
2023-02-01T02:01:29.283Z,5.64
2023-02-01T02:03:57.970Z,5.64
2023-02-01T02:06:32.944Z,5.44
2023-02-01T02:09:04.758Z,5.45
2023-02-01T02:11:34.919Z,5.64
2023-02-01T02:14:04.410Z,5.55
2023-02-01T02:16:41.107Z,5.53
2023-02-01T02:19:35.238Z,5.69
2023-02-01T02:22:17.615Z,5.60
2023-02-01T02:25:04.320Z,5.45
2023-02-01T02:27:44.992Z,5.52
2023-02-01T02:30:38.242Z,5.48
2023-02-01T02:33:25.061Z,5.55
2023-02-01T02:36:00.518Z,5.55
2023-02-01T02:38:32.416Z,5.59
2023-02-01T02:41:05.634Z,5.56
2023-02-01T02:43:55.032Z,5.79
2023-02-01T02:46:42.384Z,5.59
2023-02-01T02:49:13.457Z,5.56
2023-02-01T02:52:03.391Z,5.63
2023-02-01T02:54:51.590Z,5.68
2023-02-01T02:57:40.505Z,5.84
2023-02-01T03:00:28.773Z,5.44
2023-02-01T03:03:14.822Z,5.68
2023-02-01T03:05:43.915Z,5.77
2023-02-01T03:08:15.412Z,5.66
2023-02-01T03:10:50.551Z,5.86
2023-02-01T03:13:21.435Z,5.73
2023-02-01T08:06:49.726Z,5.59
2023-02-01T08:09:18.289Z,5.72
2023-02-01T08:11:46.415Z,5.61
2023-02-01T08:14:14.634Z,5.91
2023-02-01T08:16:42.777Z,5.69
2023-02-01T08:19:11.288Z,5.85
2023-02-01T08:21:39.447Z,5.89
2023-02-01T08:24:11.812Z,6.05
2023-02-01T08:26:39.911Z,6.01
2023-02-01T08:29:08.911Z,6.24
2023-02-01T08:31:37.132Z,5.94
2023-02-01T08:34:05.704Z,6.14
2023-02-01T08:36:34.008Z,6.16
2023-02-01T08:39:02.456Z,6.09
2023-02-01T08:41:32.161Z,6.08
2023-02-01T08:44:00.254Z,6.09
2023-02-01T08:46:28.663Z,6.17
2023-02-01T08:48:56.823Z,6.12
2023-02-01T08:51:25.529Z,6.14
2023-02-01T08:53:54.088Z,5.91
2023-02-01T08:56:22.420Z,5.96
2023-02-01T08:58:51.933Z,5.64
2023-02-01T09:01:20.256Z,5.72
2023-02-01T09:03:48.619Z,5.49
2023-02-01T09:06:17.936Z,5.34
2023-02-01T09:08:48.319Z,5.67
2023-02-01T09:11:21.408Z,5.86
2023-02-01T09:13:50.362Z,6.02
2023-02-01T09:16:20.078Z,5.85
2023-02-01T09:18:56.786Z,5.97
2023-02-01T09:21:36.769Z,5.75
2023-02-01T09:24:05.856Z,6.25
2023-02-01T09:26:34.381Z,6.02
2023-02-01T09:29:07.306Z,6.21
2023-02-01T09:31:37.592Z,6.24
2023-02-01T09:34:06.095Z,6.35
2023-02-01T09:36:34.142Z,6.55
2023-02-01T09:39:02.935Z,6.41
2023-02-01T09:41:45.107Z,6.62
2023-02-01T09:44:20.260Z,6.64
2023-02-01T09:46:49.817Z,6.62
2023-02-01T09:49:20.773Z,6.43
2023-02-01T09:51:50.510Z,6.61
2023-02-01T09:54:20.354Z,6.78
2023-02-01T09:56:50.610Z,6.58
2023-02-01T09:59:25.653Z,6.67
2023-02-01T10:01:55.347Z,6.51
2023-02-01T10:04:23.898Z,6.53
2023-02-01T10:06:57.099Z,6.55
2023-02-01T10:09:33.602Z,6.80
2023-02-01T10:12:17.507Z,6.69
2023-02-01T10:14:53.934Z,6.93
2023-02-01T10:17:27.757Z,6.97
2023-02-01T10:20:02.251Z,6.83
2023-02-01T10:22:56.045Z,6.47
2023-02-01T10:25:28.354Z,6.44
2023-02-01T10:27:57.240Z,6.62
2023-02-01T10:30:27.295Z,6.43
2023-02-01T10:33:03.443Z,6.80
2023-02-01T10:35:37.369Z,6.94
2023-02-01T10:38:14.424Z,6.85
2023-02-01T10:40:43.331Z,6.86
2023-02-01T10:43:11.679Z,6.67
2023-02-01T10:45:40.627Z,6.75
2023-02-01T10:48:10.326Z,6.79
2023-02-01T10:50:41.513Z,6.71
2023-02-01T10:53:14.195Z,7.02
2023-02-01T10:55:43.282Z,6.75
2023-02-01T10:58:17.224Z,6.89
2023-02-01T11:00:47.372Z,6.67
2023-02-01T11:03:24.403Z,6.80
2023-02-01T11:05:52.488Z,6.88
2023-02-01T11:08:21.368Z,7.14
2023-02-01T11:10:51.802Z,6.98
2023-02-01T11:13:20.613Z,7.04
2023-02-01T11:15:49.203Z,7.11
2023-02-01T11:18:18.935Z,7.12
2023-02-01T11:20:52.799Z,6.92
2023-02-01T11:23:24.781Z,6.80
2023-02-01T11:25:56.175Z,6.82
2023-02-01T11:28:28.144Z,6.79
2023-02-01T11:31:00.758Z,7.00
2023-02-01T11:33:35.011Z,7.04
2023-02-01T11:36:10.614Z,7.16
2023-02-01T11:38:38.987Z,7.34
2023-02-01T11:41:15.270Z,7.00
2023-02-01T11:43:56.365Z,7.02
2023-02-01T11:46:30.298Z,7.05
2023-02-01T11:49:15.365Z,6.78
2023-02-01T11:51:57.315Z,6.93
2023-02-01T11:54:35.805Z,7.31
2023-02-01T11:57:12.676Z,6.99
2023-02-01T11:59:56.918Z,7.17
2023-02-01T12:02:45.790Z,6.88
2023-02-01T12:05:27.027Z,6.69
2023-02-01T12:08:11.435Z,6.86
2023-02-01T12:10:46.588Z,6.82
2023-02-01T12:13:20.277Z,7.04
2023-02-01T12:15:57.971Z,6.64
2023-02-01T12:18:35.109Z,7.04
2023-02-01T12:21:06.836Z,7.09
2023-02-01T12:23:48.122Z,7.10
2023-02-01T12:26:29.295Z,7.27
2023-02-01T12:29:09.559Z,7.15
2023-02-01T12:31:54.960Z,7.11
2023-02-01T12:34:39.773Z,7.19
2023-02-01T12:37:20.398Z,7.57
2023-02-01T12:39:54.809Z,7.25
2023-02-01T12:42:26.428Z,7.36
2023-02-01T12:44:58.232Z,7.29
2023-02-01T12:47:29.841Z,7.17
2023-02-01T12:49:59.795Z,7.04
2023-02-01T12:52:30.137Z,7.04
2023-02-01T12:55:03.235Z,7.03
2023-02-01T12:57:33.031Z,6.75
2023-02-01T13:00:06.979Z,6.72
2023-02-01T13:02:40.163Z,6.97
2023-02-01T13:05:16.463Z,7.07
2023-02-01T13:07:50.302Z,6.81
2023-02-01T13:10:29.093Z,6.65
2023-02-01T13:13:02.323Z,6.67
2023-02-01T13:15:32.407Z,6.75
2023-02-01T13:18:02.412Z,6.51
2023-02-01T13:20:37.671Z,6.52
2023-02-01T13:23:10.780Z,6.51
2023-02-01T13:25:45.718Z,6.43
2023-02-01T13:28:15.245Z,6.66
2023-02-01T13:30:50.878Z,6.74
2023-02-01T13:33:52.404Z,6.77
2023-02-01T13:36:42.632Z,7.02
2023-02-01T13:39:26.355Z,6.94
2023-02-01T13:42:00.160Z,7.02
2023-02-01T13:44:30.897Z,7.59
2023-02-01T13:47:00.926Z,7.24
2023-02-01T13:49:30.841Z,6.98
2023-02-01T13:52:00.239Z,7.02
2023-02-01T13:54:30.234Z,6.88
2023-02-01T13:57:01.199Z,7.01
2023-02-01T13:59:50.153Z,6.60
2023-02-01T14:02:36.707Z,6.64
2023-02-01T14:05:05.671Z,6.54
2023-02-01T14:07:36.293Z,6.33
2023-02-01T14:10:25.844Z,6.31
2023-02-01T14:13:05.434Z,6.37
2023-02-01T14:15:33.585Z,6.28
2023-02-01T14:18:24.613Z,6.40
2023-02-01T14:21:22.255Z,6.20
2023-02-01T14:23:57.656Z,6.17
2023-02-01T14:26:26.775Z,6.32
2023-02-01T14:35:31.153Z,6.35
2023-02-01T14:38:05.176Z,6.28
2023-02-01T14:40:36.751Z,6.48
2023-02-01T14:43:05.421Z,6.40
2023-02-01T14:45:53.184Z,6.33
2023-02-01T14:48:46.886Z,6.32
2023-02-01T14:51:16.846Z,6.44
2023-02-01T14:53:52.079Z,6.41
2023-02-01T14:56:22.785Z,6.41
2023-02-01T14:58:54.457Z,6.52
2023-02-01T15:01:25.162Z,6.49
2023-02-01T15:03:57.445Z,6.48
2023-02-01T15:06:31.065Z,6.53
2023-02-01T15:09:02.814Z,6.44
2023-02-01T15:11:31.473Z,6.35
2023-02-01T15:14:01.435Z,6.56
2023-02-01T15:16:33.292Z,6.51
2023-02-01T15:19:15.723Z,6.45
2023-02-01T15:21:46.887Z,6.72
2023-02-01T15:24:22.893Z,6.31
2023-02-01T15:27:01.316Z,6.60
2023-02-01T15:29:33.393Z,6.40
2023-02-01T15:32:02.095Z,6.54
2023-02-01T15:34:48.796Z,6.58
2023-02-01T15:37:19.640Z,6.65
2023-02-01T15:40:22.889Z,6.63
2023-02-01T15:42:55.086Z,6.50
2023-02-01T15:45:28.115Z,6.41
2023-02-01T15:47:58.572Z,6.40
2023-02-01T15:50:28.912Z,6.38
2023-02-01T15:52:57.426Z,6.33
2023-02-01T15:55:41.440Z,6.35
2023-02-01T15:58:11.868Z,6.36
2023-02-01T16:00:44.868Z,6.31
2023-02-01T16:03:29.832Z,6.50
2023-02-01T16:05:58.624Z,6.28
2023-02-01T16:08:28.765Z,6.31
2023-02-01T16:11:03.780Z,6.34
2023-02-01T16:13:32.100Z,6.27
2023-02-01T16:16:00.246Z,6.27
2023-02-01T16:18:28.630Z,6.31
2023-02-01T16:20:57.003Z,6.43
2023-02-01T16:23:25.357Z,6.50
2023-02-01T16:25:53.685Z,6.49
2023-02-01T16:28:23.394Z,6.42
2023-02-01T16:30:51.843Z,6.43
2023-02-01T16:33:22.849Z,6.48
2023-02-01T16:35:54.391Z,6.42
2023-02-01T16:38:24.592Z,6.29
2023-02-01T16:40:53.198Z,6.44
2023-02-01T16:43:24.857Z,6.37
2023-02-01T16:45:57.130Z,6.22
2023-02-01T16:48:26.531Z,6.35
2023-02-01T16:50:55.797Z,6.37
2023-02-01T16:53:24.829Z,6.28
2023-02-01T16:55:53.388Z,6.38
2023-02-01T16:58:21.708Z,6.26
2023-02-01T17:00:51.799Z,6.41
2023-02-01T17:03:20.193Z,6.33
2023-02-01T17:05:49.939Z,6.38
2023-02-01T17:08:20.497Z,6.48
2023-02-01T17:10:48.915Z,6.60
2023-02-01T17:13:17.859Z,6.47
2023-02-01T17:15:48.745Z,6.48
2023-02-01T17:18:19.006Z,6.49
2023-02-01T17:20:48.529Z,6.32
2023-02-01T17:23:20.618Z,6.39
2023-02-01T17:25:49.304Z,6.31
2023-02-01T17:28:17.640Z,6.41
2023-02-01T17:30:46.566Z,6.44
2023-02-01T17:33:24.062Z,6.23
2023-02-01T17:35:54.712Z,6.37
2023-02-01T17:38:23.305Z,6.30
2023-02-01T17:40:52.457Z,6.42
2023-02-01T17:43:24.477Z,6.34
2023-02-01T17:45:56.030Z,6.24
2023-02-01T17:48:27.856Z,6.39
2023-02-01T17:50:58.735Z,6.26
2023-02-01T17:53:27.091Z,6.32
2023-02-01T17:55:58.007Z,6.13
2023-02-01T17:58:26.927Z,6.21
2023-02-01T18:00:55.218Z,6.19
2023-02-01T18:03:28.017Z,6.27
2023-02-01T18:05:57.910Z,6.30
2023-02-01T18:08:28.423Z,6.21
2023-02-01T18:11:00.666Z,6.33
2023-02-01T18:13:29.632Z,6.22
2023-02-01T18:15:59.726Z,6.22
2023-02-01T18:18:30.828Z,6.27
2023-02-01T18:20:59.775Z,6.25
2023-02-01T18:23:28.145Z,6.26
2023-02-01T18:25:56.536Z,6.06
2023-02-01T18:28:24.906Z,6.26
2023-02-01T18:30:53.417Z,6.36
2023-02-01T18:33:22.525Z,6.27
2023-02-01T18:35:52.212Z,6.33
2023-02-01T18:38:20.550Z,6.27
2023-02-01T18:40:51.590Z,6.25
2023-02-01T18:43:20.324Z,6.43
2023-02-01T18:45:48.831Z,6.38
2023-02-01T18:48:17.879Z,6.38
2023-02-01T18:50:47.226Z,6.43
2023-02-01T18:53:19.872Z,6.31
2023-02-01T18:55:48.711Z,6.33
2023-02-01T18:58:17.864Z,6.41
2023-02-01T19:00:46.804Z,6.43
2023-02-01T19:03:15.353Z,6.54
2023-02-01T19:05:47.099Z,6.35
2023-02-01T19:08:15.137Z,6.48
2023-02-01T19:10:44.695Z,6.41
2023-02-01T19:13:14.194Z,6.43
2023-02-01T19:15:43.801Z,6.57
2023-02-01T19:18:16.063Z,6.51
2023-02-01T19:20:46.005Z,6.38
2023-02-01T19:23:14.630Z,6.55
2023-02-01T19:25:46.073Z,6.39
2023-02-01T19:28:14.476Z,6.42
2023-02-01T19:30:43.081Z,6.41
2023-02-01T19:33:11.326Z,6.45
2023-02-01T19:35:39.569Z,6.53
2023-02-01T19:38:07.876Z,6.49
2023-02-01T19:40:35.923Z,6.50
2023-02-01T19:43:05.349Z,6.45
2023-02-01T19:45:33.429Z,6.45
2023-02-01T19:48:03.260Z,6.45
2023-02-01T19:50:31.949Z,6.47
2023-02-01T19:53:00.158Z,6.52
2023-02-01T19:55:28.143Z,6.43
2023-02-01T19:57:56.512Z,6.53
2023-02-01T20:00:25.555Z,6.57
2023-02-01T20:02:53.895Z,6.45
2023-02-01T20:05:23.453Z,6.51
2023-02-01T20:07:52.177Z,6.58
2023-02-01T20:10:20.595Z,6.54
2023-02-01T20:12:49.495Z,6.44
2023-02-01T20:15:18.081Z,6.68
2023-02-01T20:17:50.798Z,6.48
2023-02-01T20:20:19.716Z,6.58
2023-02-01T20:22:48.168Z,6.61
2023-02-01T20:25:16.863Z,6.63
2023-02-01T20:27:46.053Z,6.60
2023-02-01T20:30:19.897Z,6.67
2023-02-01T20:32:49.827Z,6.65
2023-02-01T20:35:18.058Z,6.61
2023-02-01T20:37:46.468Z,6.70
2023-02-01T20:40:16.808Z,6.57
2023-02-01T20:42:47.243Z,6.69
2023-02-01T20:45:16.102Z,6.49
2023-02-01T20:47:44.467Z,6.71
2023-02-01T20:50:14.529Z,6.60
2023-02-01T20:52:43.772Z,6.61
2023-02-01T20:55:12.242Z,6.64
2023-02-01T20:57:40.308Z,6.61
2023-02-01T21:00:10.453Z,6.61
2023-02-01T21:02:39.013Z,6.70
2023-02-01T21:05:07.641Z,6.65
2023-02-01T21:07:37.274Z,6.58
2023-02-01T21:10:06.381Z,6.65
2023-02-01T21:12:34.934Z,6.61
2023-02-01T21:15:03.115Z,6.77
2023-02-01T21:17:31.814Z,6.62
2023-02-01T21:20:00.216Z,6.73
2023-02-01T21:22:28.231Z,6.72
2023-02-01T21:24:57.772Z,6.68
2023-02-01T21:27:25.982Z,6.54
2023-02-01T21:29:54.055Z,6.67
2023-02-01T21:32:22.351Z,6.42
2023-02-01T21:34:50.745Z,6.47
2023-02-01T21:37:18.746Z,6.44
2023-02-01T21:39:46.808Z,6.51
2023-02-01T21:42:19.128Z,6.54
2023-02-01T21:44:49.387Z,6.59
2023-02-01T21:47:18.864Z,6.59
2023-02-01T21:49:49.686Z,6.47
2023-02-01T21:52:18.373Z,6.54
2023-02-01T21:54:46.777Z,6.55
2023-02-01T21:57:14.838Z,6.53
2023-02-01T22:02:40.874Z,6.55
2023-02-01T22:05:11.148Z,6.54
2023-02-01T22:07:40.000Z,6.52
2023-02-01T22:10:09.018Z,6.55
2023-02-01T22:12:37.396Z,6.52
2023-02-01T22:15:06.502Z,6.30
2023-02-01T22:17:35.124Z,6.32
2023-02-01T22:20:05.887Z,6.11
2023-02-01T22:22:34.190Z,6.07
2023-02-01T22:25:02.541Z,6.23
2023-02-01T22:28:31.986Z,6.14
2023-02-01T22:30:19.511Z,6.07
2023-02-01T22:32:48.086Z,5.90
2023-02-01T22:35:18.091Z,6.05
2023-02-01T22:37:46.493Z,6.10
2023-02-01T22:40:15.185Z,6.07
2023-02-01T22:42:43.555Z,6.08
2023-02-01T22:45:13.437Z,6.13
2023-02-01T22:47:41.823Z,6.10
2023-02-01T22:50:11.305Z,6.14
2023-02-01T22:52:40.951Z,6.12
2023-02-01T22:55:09.733Z,6.21
2023-02-01T22:57:37.993Z,6.02
2023-02-01T23:00:07.737Z,5.88
2023-02-01T23:02:38.035Z,6.05
2023-02-01T23:05:06.491Z,6.00
2023-02-01T23:07:34.841Z,6.09
2023-02-01T23:10:04.324Z,6.01
2023-02-01T23:12:32.390Z,6.06
2023-02-01T23:15:06.505Z,5.99
2023-02-01T23:17:34.968Z,6.07
2023-02-01T23:20:03.353Z,5.92
2023-02-01T23:22:31.824Z,5.93
2023-02-01T23:25:00.136Z,6.00
2023-02-01T23:27:29.773Z,5.98
2023-02-01T23:29:58.469Z,6.01
2023-02-01T23:32:26.559Z,6.01
2023-02-01T23:34:54.800Z,5.99
2023-02-01T23:37:22.947Z,5.95
2023-02-01T23:39:51.967Z,6.01
2023-02-01T23:42:20.350Z,6.13
2023-02-01T23:44:49.999Z,6.05
2023-02-01T23:47:18.329Z,6.07
2023-02-01T23:49:46.636Z,6.03
2023-02-01T23:52:14.928Z,5.98
2023-02-01T23:54:43.412Z,6.09
2023-02-01T23:57:11.734Z,6.05
2023-02-01T23:59:40.121Z,6.07
